createdAt,value
2019-01-02T00:04:17.685Z,19.83
2019-01-02T00:07:19.154Z,21.97
2019-01-02T00:13:04.690Z,12.67
2019-01-02T00:18:51.077Z,18.60
2019-01-02T00:24:36.386Z,13.20
2019-01-02T00:27:42.023Z,7.73
2019-01-02T00:33:27.942Z,9.93
2019-01-02T00:39:11.680Z,14.47
2019-01-02T00:45:22.290Z,14.10
2019-01-02T00:48:21.019Z,13.17
2019-01-02T00:54:07.833Z,13.73
2019-01-02T00:59:54.338Z,18.97
2019-01-02T01:02:55.476Z,17.07
2019-01-02T01:08:41.019Z,15.40
2019-01-02T01:14:26.601Z,13.87
2019-01-02T01:20:31.442Z,18.70
2019-01-02T01:23:32.305Z,25.07
2019-01-02T01:29:17.350Z,14.07
2019-01-02T01:35:01.913Z,24.23
2019-01-02T01:40:47.884Z,22.30
2019-01-02T01:43:53.477Z,18.10
2019-01-02T01:49:38.976Z,18.97
2019-01-02T01:55:23.829Z,16.53
2019-01-02T01:58:25.103Z,17.20
2019-01-02T02:01:26.749Z,27.63
2019-01-02T02:07:33.600Z,24.00
2019-01-02T02:10:35.150Z,17.20
2019-01-02T02:16:20.867Z,24.50
2019-01-02T02:19:27.461Z,21.00
2019-01-02T02:25:13.194Z,24.70
2019-01-02T02:30:59.525Z,22.33
2019-01-02T02:36:46.258Z,26.00
2019-01-02T02:39:46.531Z,22.83
2019-01-02T02:45:33.459Z,18.53
2019-01-02T02:51:18.816Z,23.70
2019-01-02T03:00:31.858Z,27.43
2019-01-02T03:03:33.329Z,17.67
2019-01-02T03:09:19.215Z,27.90
2019-01-02T03:15:28.738Z,18.87
2019-01-02T03:18:28.365Z,19.23
2019-01-02T03:21:48.897Z,19.77
2019-01-02T03:24:50.365Z,18.80
2019-01-02T03:28:10.506Z,25.37
2019-01-02T03:33:55.524Z,26.73
2019-01-02T03:39:41.178Z,32.17
2019-01-02T03:45:25.992Z,32.00
2019-01-02T03:51:11.870Z,26.60
2019-01-02T03:56:56.795Z,27.37
2019-01-02T04:02:42.406Z,31.73
2019-01-02T04:05:43.733Z,21.70
2019-01-02T04:18:19.398Z,31.27
2019-01-02T04:21:20.141Z,21.53
2019-01-02T04:27:06.764Z,30.80
2019-01-02T04:33:46.266Z,29.73
2019-01-02T04:36:47.443Z,23.50
2019-01-02T04:42:54.190Z,27.60
2019-01-02T04:48:39.691Z,23.40
2019-01-02T04:51:38.839Z,34.17
2019-01-02T04:57:25.459Z,19.37
2019-01-02T05:03:11.832Z,25.43
2019-01-02T05:12:03.034Z,32.73
2019-01-02T05:17:48.841Z,27.77
2019-01-02T05:23:34.520Z,25.83
2019-01-02T05:26:35.914Z,23.87
2019-01-02T05:29:36.604Z,27.63
2019-01-02T05:35:47.589Z,28.60
2019-01-02T05:38:48.148Z,27.47
2019-01-02T05:44:39.599Z,30.97
2019-01-02T05:47:41.087Z,31.83
2019-01-02T05:53:26.678Z,23.97
2019-01-02T05:59:12.140Z,25.33
2019-01-02T06:08:23.700Z,26.33
2019-01-02T06:14:09.947Z,18.73
2019-01-02T06:20:01.402Z,25.93
2019-01-02T06:23:03.015Z,20.43
2019-01-02T06:28:48.610Z,23.37
2019-01-02T06:34:34.409Z,24.37
2019-01-02T06:40:20.094Z,23.80
2019-01-02T06:43:21.297Z,19.60
2019-01-02T06:49:07.249Z,22.50
2019-01-02T06:54:53.797Z,23.53
2019-01-02T07:00:40.119Z,20.33
2019-01-02T07:03:41.530Z,19.63
2019-01-02T07:06:43.151Z,17.13
2019-01-02T07:09:43.899Z,14.90
2019-01-02T07:15:29.710Z,27.07
2019-01-02T07:21:15.431Z,20.20
2019-01-02T07:24:21.124Z,19.13
2019-01-02T07:30:06.376Z,15.93
2019-01-02T07:35:52.191Z,14.07
2019-01-02T07:41:37.059Z,13.93
2019-01-02T07:44:38.371Z,14.50
2019-01-02T07:50:24.083Z,17.97
2019-01-02T07:56:09.170Z,13.33
2019-01-02T08:01:53.777Z,12.80
2019-01-02T08:07:40.042Z,16.37
2019-01-02T08:10:41.554Z,14.63
2019-01-02T08:16:26.889Z,17.10
2019-01-02T08:22:12.373Z,16.43
2019-01-02T08:27:58.767Z,13.37
2019-01-02T08:31:00.351Z,10.83
2019-01-02T08:36:46.950Z,16.53
2019-01-02T08:42:32.503Z,17.57
2019-01-02T08:48:18.445Z,13.40
2019-01-02T08:54:04.932Z,10.87
2019-01-02T08:57:06.142Z,7.97
2019-01-02T09:02:51.864Z,11.73
2019-01-02T09:08:59.467Z,7.57
2019-01-02T09:14:46.123Z,8.03
2019-01-02T09:21:11.961Z,10.43
2019-01-02T09:24:13.289Z,6.23
2019-01-02T09:30:16.885Z,9.80
2019-01-02T09:33:18.439Z,3.57
2019-01-02T09:39:04.286Z,8.43
2019-01-02T09:44:49.840Z,4.87
2019-01-02T09:50:36.062Z,5.57
2019-01-02T09:59:46.934Z,5.30
2019-01-02T10:05:32.771Z,3.23
2019-01-02T10:12:12.650Z,1.17
2019-01-02T10:15:13.975Z,1.47
2019-01-02T10:20:59.863Z,2.00
2019-01-02T10:26:44.809Z,3.27
2019-01-02T10:33:24.837Z,2.87
2019-01-02T10:36:25.973Z,3.10
2019-01-02T10:42:11.598Z,3.77
2019-01-02T10:47:57.215Z,3.67
2019-01-02T10:54:00.822Z,3.90
2019-01-02T10:57:01.718Z,3.33
2019-01-02T11:02:46.755Z,2.17
2019-01-02T11:08:33.434Z,2.33
2019-01-02T11:14:18.510Z,4.23
2019-01-02T11:23:29.942Z,1.90
2019-01-02T11:26:31.426Z,2.80
2019-01-02T11:29:32.718Z,2.13
2019-01-02T11:35:20.059Z,1.17
2019-01-02T11:41:04.965Z,2.20
2019-01-02T11:50:05.645Z,2.93
2019-01-02T11:55:51.253Z,4.07
2019-01-02T12:01:55.815Z,1.53
2019-01-02T12:07:41.792Z,1.73
2019-01-02T12:10:42.891Z,4.07
2019-01-02T12:16:28.411Z,2.63
2019-01-02T12:19:30.942Z,3.27
2019-01-02T12:25:37.844Z,3.00
2019-01-02T12:28:38.503Z,4.07
2019-01-02T12:31:39.957Z,0.83
2019-01-02T12:37:27.264Z,1.07
2019-01-02T12:43:12.900Z,2.10
2019-01-02T12:46:14.371Z,2.63
2019-01-02T12:55:08.486Z,1.77
2019-01-02T12:58:10.041Z,2.27
2019-01-02T13:01:33.021Z,2.17
2019-01-02T13:08:32.274Z,1.43
2019-01-02T13:14:13.073Z,0.57
2019-01-02T13:23:05.307Z,8.13
2019-01-02T13:31:56.585Z,3.77
2019-01-02T13:34:56.854Z,1.37
2019-01-02T13:40:45.368Z,2.97
2019-01-02T13:43:46.568Z,8.23
2019-01-02T13:50:27.330Z,2.03
2019-01-02T13:56:13.833Z,1.30
2019-01-02T13:59:15.347Z,3.93
2019-01-02T14:05:01.299Z,0.40
2019-01-02T14:10:46.875Z,1.13
2019-01-02T14:16:32.463Z,0.63
2019-01-02T14:22:18.476Z,1.00
2019-01-02T14:28:58.506Z,0.90
2019-01-02T14:32:00.006Z,1.43
2019-01-02T14:37:44.839Z,3.27
2019-01-02T14:43:33.500Z,1.90
2019-01-02T14:49:18.415Z,2.23
2019-01-02T14:58:48.466Z,2.93
2019-01-02T15:04:36.807Z,2.63
2019-01-02T15:10:22.820Z,3.37
2019-01-02T15:13:24.388Z,0.77
2019-01-02T15:19:11.025Z,1.23
2019-01-02T15:24:56.768Z,0.90
2019-01-02T15:30:42.406Z,1.87
2019-01-02T15:33:43.452Z,0.50
2019-01-02T15:39:30.198Z,0.57
2019-01-02T15:45:15.638Z,1.73
2019-01-02T15:51:01.235Z,2.13
2019-01-02T15:54:01.919Z,0.97
2019-01-02T15:59:47.323Z,1.80
2019-01-02T16:08:42.672Z,2.33
2019-01-02T16:11:43.378Z,1.97
2019-01-02T16:14:44.634Z,3.13
2019-01-02T16:20:30.362Z,2.33
2019-01-02T16:26:16.743Z,1.20
2019-01-02T16:35:13.059Z,4.23
2019-01-02T16:41:17.480Z,1.30
2019-01-02T16:47:03.186Z,7.33
2019-01-02T16:50:04.519Z,0.63
2019-01-02T16:53:05.743Z,1.57
2019-01-02T16:56:07.531Z,0.87
2019-01-02T17:01:53.198Z,3.30
2019-01-02T17:20:42.039Z,2.93
2019-01-02T17:28:00.169Z,2.90
2019-01-02T17:31:12.405Z,1.23
2019-01-02T17:36:57.751Z,3.92
2019-01-02T17:42:42.453Z,4.57
2019-01-02T17:45:43.810Z,1.73
2019-01-02T17:51:29.599Z,2.73
2019-01-02T17:54:32.073Z,6.97
2019-01-02T17:57:32.883Z,2.37
2019-01-02T18:03:17.847Z,4.07
2019-01-02T18:06:19.163Z,1.87
2019-01-02T18:12:04.938Z,1.93
2019-01-02T18:17:50.613Z,3.47
2019-01-02T18:23:37.047Z,1.57
2019-01-02T18:26:38.769Z,2.43
2019-01-02T18:32:24.390Z,3.33
2019-01-02T18:38:09.215Z,4.70
2019-01-02T18:43:54.149Z,8.03
2019-01-02T18:46:55.291Z,8.33
2019-01-02T18:52:40.072Z,5.20
2019-01-02T18:55:41.406Z,5.73
2019-01-02T18:58:42.546Z,5.70
2019-01-02T19:04:29.422Z,3.83
2019-01-02T19:07:30.019Z,4.23
2019-01-02T19:10:29.565Z,2.37
2019-01-02T19:25:30.077Z,2.57
2019-01-02T19:28:31.163Z,11.03
2019-01-02T19:34:16.163Z,3.07
2019-01-02T19:40:02.493Z,3.57
2019-01-02T19:43:03.529Z,7.50
2019-01-02T19:48:49.277Z,12.13
2019-01-02T19:54:35.803Z,7.53
2019-01-02T20:00:21.473Z,4.23
2019-01-02T20:03:22.083Z,4.47
2019-01-02T20:10:02.211Z,6.93
2019-01-02T20:13:03.450Z,2.53
2019-01-02T20:18:49.201Z,3.00
2019-01-02T20:24:35.458Z,3.20
2019-01-02T20:31:21.000Z,9.47
2019-01-02T20:34:22.150Z,2.57
2019-01-02T20:41:02.210Z,4.50
2019-01-02T20:44:03.731Z,4.73
2019-01-02T20:49:49.461Z,2.73
2019-01-02T20:55:35.020Z,4.07
2019-01-02T20:58:36.368Z,7.43
2019-01-02T21:04:21.115Z,6.43
2019-01-02T21:10:06.906Z,6.03
2019-01-02T21:15:55.771Z,1.83
2019-01-02T21:21:42.278Z,1.93
2019-01-02T21:24:43.535Z,4.90
2019-01-02T21:30:28.435Z,3.07
2019-01-02T21:36:14.222Z,8.40
2019-01-02T21:45:05.195Z,3.67
2019-01-02T21:52:03.518Z,2.97
2019-01-02T21:55:05.064Z,5.73
2019-01-02T22:00:49.503Z,3.40
2019-01-02T22:06:36.005Z,2.40
2019-01-02T22:12:22.625Z,3.53
2019-01-02T22:15:23.679Z,4.10
2019-01-02T22:21:08.789Z,4.80
2019-01-02T22:26:54.794Z,5.57
2019-01-02T22:29:56.973Z,3.40
2019-01-02T22:32:57.891Z,3.07
2019-01-02T22:35:59.528Z,3.10
2019-01-02T22:41:45.161Z,3.50
2019-01-02T22:47:31.851Z,3.57
2019-01-02T22:50:33.499Z,4.93
2019-01-02T22:56:19.279Z,3.93
2019-01-02T22:59:20.397Z,8.37
2019-01-02T23:02:41.133Z,2.80
2019-01-02T23:08:29.914Z,3.63
2019-01-02T23:11:53.025Z,9.40
2019-01-02T23:17:58.763Z,2.87
2019-01-02T23:23:49.467Z,4.63
2019-01-02T23:29:29.974Z,6.23
2019-01-02T23:35:08.382Z,2.93
2019-01-02T23:40:53.006Z,4.47
2019-01-02T23:43:54.447Z,2.87
2019-01-02T23:49:39.269Z,3.57
2019-01-02T23:55:25.151Z,3.10
